Time;durP1;ratioP1;P1;durP2;ratioP2;P2;SDS_P1;SDS_P2;PMS_P1;PMS_P2;Temp;Humidity;BMP_temperature;BMP_pressure;BME280_temperature;BME280_humidity;BME280_pressure;Samples;Min_cycle;Max_cycle;Signal;HPM_P1;HPM_P2
2022/12/25 00:00:45;;;;;;;;;3.00;3.00;;;;;;;;5023851;28;9834;-80
2022/12/25 00:03:12;;;;;;;;;5.00;4.00;;;;;;;;5034733;28;9870;-80
2022/12/25 00:05:40;;;;;;;;;11.50;11.50;;;;;;;;5015582;28;10005;-79
2022/12/25 00:08:07;;;;;;;;;3.75;3.75;;;;;;;;5030558;28;10340;-80
2022/12/25 00:10:35;;;;;;;;;3.00;2.00;;;;;;;;5028949;28;9914;-81
2022/12/25 00:13:04;;;;;;;;;4.00;4.00;;;;;;;;5015083;28;9940;-81
2022/12/25 00:15:31;;;;;;;;;5.00;3.00;;;;;;;;5016424;28;9934;-80
2022/12/25 00:18:00;;;;;;;;;6.50;3.75;;;;;;;;5036311;28;9929;-81
2022/12/25 00:20:27;;;;;;;;;4.25;4.25;;;;;;;;5039841;28;9911;-80
2022/12/25 00:22:56;;;;;;;;;4.00;4.00;;;;;;;;5037026;28;9988;-80
2022/12/25 00:25:24;;;;;;;;;4.00;4.00;;;;;;;;5034916;28;9771;-80
2022/12/25 00:27:51;;;;;;;;;5.00;4.25;;;;;;;;5004780;28;9866;-81
2022/12/25 00:30:19;;;;;;;;;4.75;4.75;;;;;;;;4999425;28;10035;-80
2022/12/25 00:32:49;;;;;;;;;4.50;3.00;;;;;;;;5036017;28;10492;-80
2022/12/25 00:35:18;;;;;;;;;6.00;4.50;;;;;;;;5034399;28;9845;-80
2022/12/25 00:37:45;;;;;;;;;5.00;4.50;;;;;;;;5036596;28;10102;-80
2022/12/25 00:40:13;;;;;;;;;5.00;5.00;;;;;;;;5026441;28;10226;-82
2022/12/25 00:42:41;;;;;;;;;4.75;4.50;;;;;;;;5021522;28;10002;-81
2022/12/25 00:45:09;;;;;;;;;5.75;5.00;;;;;;;;5006413;28;9940;-81
2022/12/25 00:47:37;;;;;;;;;6.00;6.00;;;;;;;;5002984;28;9928;-82
2022/12/25 00:50:06;;;;;;;;;9.00;6.00;;;;;;;;5024275;28;10050;-81
2022/12/25 00:52:35;;;;;;;;;5.75;5.75;;;;;;;;5022386;28;10009;-82
2022/12/25 00:55:02;;;;;;;;;5.50;5.50;;;;;;;;5037992;28;10749;-82
2022/12/25 00:57:30;;;;;;;;;3.00;3.00;;;;;;;;5006579;28;10032;-82
2022/12/25 00:59:57;;;;;;;;;7.25;6.50;;;;;;;;5002745;28;10030;-82
2022/12/25 01:02:25;;;;;;;;;7.50;5.50;;;;;;;;5020343;28;10024;-82
2022/12/25 01:04:54;;;;;;;;;7.00;7.00;;;;;;;;5008911;28;9823;-82
2022/12/25 01:07:23;;;;;;;;;5.50;5.50;;;;;;;;5017847;28;10017;-82
2022/12/25 01:12:39;;;;;;;;;6.25;6.25;;;;;;;;5029549;28;9889;-81
2022/12/25 01:15:08;;;;;;;;;7.00;7.00;;;;;;;;5031074;28;9906;-81
2022/12/25 01:17:36;;;;;;;;;8.00;6.75;;;;;;;;5027050;28;10140;-81
2022/12/25 01:20:04;;;;;;;;;5.75;5.75;;;;;;;;5025085;28;9918;-81
2022/12/25 01:22:31;;;;;;;;;8.50;8.50;;;;;;;;5025948;28;9883;-81
2022/12/25 01:25:00;;;;;;;;;6.00;6.00;;;;;;;;5006831;28;9952;-81
2022/12/25 01:27:28;;;;;;;;;7.50;7.50;;;;;;;;5025321;28;10030;-81
2022/12/25 01:29:56;;;;;;;;;8.00;8.00;;;;;;;;5024513;28;10163;-82
2022/12/25 01:32:23;;;;;;;;;7.25;7.25;;;;;;;;5026164;28;9847;-81
2022/12/25 01:34:51;;;;;;;;;5.50;5.00;;;;;;;;5027401;28;10086;-81
2022/12/25 01:37:19;;;;;;;;;12.25;9.00;;;;;;;;5009246;28;9810;-82
2022/12/25 01:39:47;;;;;;;;;10.75;9.00;;;;;;;;5011338;28;9925;-81
2022/12/25 01:42:18;;;;;;;;;9.75;6.50;;;;;;;;5007379;28;9832;-81
2022/12/25 01:45:30;;;;;;;;;10.25;10.25;;;;;;;;5007195;28;9859;-82
2022/12/25 01:47:58;;;;;;;;;8.25;8.25;;;;;;;;4984862;28;10090;-81
2022/12/25 01:50:26;;;;;;;;;6.00;6.00;;;;;;;;4984960;28;9910;-81
2022/12/25 01:52:54;;;;;;;;;9.25;6.75;;;;;;;;4994981;28;9868;-81
2022/12/25 01:55:22;;;;;;;;;8.00;8.00;;;;;;;;5030925;28;9821;-82
2022/12/25 01:57:51;;;;;;;;;6.00;6.00;;;;;;;;5010507;28;9856;-82
2022/12/25 02:00:18;;;;;;;;;6.25;6.25;;;;;;;;5031447;28;9788;-82
2022/12/25 02:02:46;;;;;;;;;4.00;4.00;;;;;;;;5011737;28;9773;-82
2022/12/25 02:05:18;;;;;;;;;6.25;5.00;;;;;;;;5031265;28;10557;-83
2022/12/25 02:07:47;;;;;;;;;7.25;7.25;;;;;;;;5014390;28;9720;-83
2022/12/25 02:10:15;;;;;;;;;6.00;5.50;;;;;;;;5029387;28;9746;-83
2022/12/25 02:12:43;;;;;;;;;9.00;7.00;;;;;;;;5012004;28;10384;-82
2022/12/25 02:15:15;;;;;;;;;10.00;5.50;;;;;;;;5008339;28;9880;-83
2022/12/25 02:17:50;;;;;;;;;6.75;6.75;;;;;;;;5035740;28;9736;-83
2022/12/25 02:20:41;;;;;;;;;10.00;9.50;;;;;;;;4997323;28;9791;-84
2022/12/25 02:24:01;;;;;;;;;6.25;5.75;;;;;;;;5011154;28;9770;-82
2022/12/25 02:26:53;;;;;;;;;6.50;6.50;;;;;;;;5024474;28;9787;-79
2022/12/25 02:29:28;;;;;;;;;9.75;9.50;;;;;;;;5027869;28;9697;-83
2022/12/25 02:32:00;;;;;;;;;7.00;7.00;;;;;;;;5042816;28;9780;-81
2022/12/25 02:34:33;;;;;;;;;5.50;4.75;;;;;;;;5025283;28;9800;-81
2022/12/25 02:37:04;;;;;;;;;6.25;5.75;;;;;;;;5023195;28;9847;-81
2022/12/25 02:39:58;;;;;;;;;8.75;8.75;;;;;;;;5023108;28;9718;-80
2022/12/25 03:08:00;;;;;;;;;10.75;10.75;;;;;;;;5028995;28;9873;-81
2022/12/25 03:13:32;;;;;;;;;6.25;6.25;;;;;;;;4946294;28;10092;-82
2022/12/25 03:18:47;;;;;;;;;9.75;7.75;;;;;;;;5004110;28;9825;-81
2022/12/25 03:26:55;;;;;;;;;10.25;10.25;;;;;;;;5026398;28;9716;-81
2022/12/25 03:32:16;;;;;;;;;10.25;10.25;;;;;;;;5010485;28;9766;-82
2022/12/25 04:36:23;;;;;;;;;10.50;10.25;;;;;;;;4977609;28;9845;-82
2022/12/25 04:38:52;;;;;;;;;10.25;9.75;;;;;;;;5023506;28;9832;-82
2022/12/25 04:41:20;;;;;;;;;13.00;11.75;;;;;;;;5025110;28;9633;-83
2022/12/25 04:43:48;;;;;;;;;12.75;11.00;;;;;;;;5006743;28;9743;-82
2022/12/25 04:46:15;;;;;;;;;10.75;10.25;;;;;;;;5005757;28;9781;-82
2022/12/25 04:48:43;;;;;;;;;10.00;10.00;;;;;;;;5007758;28;9613;-82
2022/12/25 04:51:13;;;;;;;;;10.50;10.50;;;;;;;;5025004;28;9841;-82
2022/12/25 04:53:40;;;;;;;;;11.75;10.00;;;;;;;;5003081;28;9648;-81
2022/12/25 04:56:08;;;;;;;;;10.50;10.50;;;;;;;;5027760;28;9654;-82
2022/12/25 04:58:37;;;;;;;;;13.50;12.00;;;;;;;;5001138;28;10558;-81
2022/12/25 05:01:05;;;;;;;;;10.50;10.50;;;;;;;;5021600;28;9681;-82
2022/12/25 05:03:33;;;;;;;;;12.00;10.50;;;;;;;;5023720;28;9766;-81
2022/12/25 05:06:01;;;;;;;;;12.00;11.00;;;;;;;;5023484;28;9690;-81
2022/12/25 05:08:29;;;;;;;;;14.00;10.25;;;;;;;;5032777;28;9802;-81
2022/12/25 05:10:57;;;;;;;;;11.75;10.75;;;;;;;;5025954;28;9849;-81
2022/12/25 05:13:25;;;;;;;;;11.50;9.50;;;;;;;;5024994;28;9927;-81
2022/12/25 05:15:54;;;;;;;;;10.00;10.00;;;;;;;;5023333;28;9823;-81
2022/12/25 05:18:22;;;;;;;;;6.00;6.00;;;;;;;;5022581;28;10505;-81
2022/12/25 05:20:53;;;;;;;;;9.75;8.00;;;;;;;;5000840;28;9695;-81
2022/12/25 05:23:21;;;;;;;;;10.75;10.00;;;;;;;;5018995;28;9787;-81
2022/12/25 05:25:48;;;;;;;;;11.00;9.75;;;;;;;;4988299;28;9774;-81
2022/12/25 05:28:17;;;;;;;;;7.25;7.25;;;;;;;;5017855;28;9761;-81
2022/12/25 05:30:45;;;;;;;;;10.50;9.25;;;;;;;;5021196;28;10454;-81
2022/12/25 05:33:13;;;;;;;;;9.00;9.00;;;;;;;;5018059;28;10534;-81
2022/12/25 05:35:41;;;;;;;;;9.25;6.75;;;;;;;;5000796;28;9657;-81
2022/12/25 05:38:09;;;;;;;;;9.00;9.00;;;;;;;;5021885;28;9537;-81
2022/12/25 05:40:40;;;;;;;;;7.75;7.75;;;;;;;;5008341;28;10869;-81
2022/12/25 05:43:08;;;;;;;;;8.50;8.50;;;;;;;;5018281;28;9622;-81
2022/12/25 05:45:35;;;;;;;;;5.25;5.25;;;;;;;;5019876;28;9654;-81
2022/12/25 05:48:03;;;;;;;;;7.00;7.00;;;;;;;;5019806;28;9633;-81
2022/12/25 05:50:32;;;;;;;;;9.00;7.00;;;;;;;;5002992;28;9573;-81
2022/12/25 05:52:59;;;;;;;;;6.25;6.25;;;;;;;;5020346;28;9613;-82
2022/12/25 05:55:27;;;;;;;;;15.25;10.25;;;;;;;;5005309;28;10416;-82
2022/12/25 05:57:54;;;;;;;;;18.75;16.50;;;;;;;;5006683;28;9727;-82
2022/12/25 06:00:21;;;;;;;;;11.50;9.00;;;;;;;;5025307;28;9789;-82
2022/12/25 06:02:49;;;;;;;;;12.25;12.25;;;;;;;;5008281;28;9782;-81
2022/12/25 06:05:17;;;;;;;;;13.50;11.75;;;;;;;;4992204;28;9836;-82
2022/12/25 06:07:47;;;;;;;;;5.50;4.00;;;;;;;;5008462;28;9782;-81
2022/12/25 06:10:15;;;;;;;;;13.00;12.50;;;;;;;;5024932;28;9554;-82
2022/12/25 06:12:43;;;;;;;;;10.25;9.50;;;;;;;;5022503;28;10422;-82
2022/12/25 06:15:10;;;;;;;;;11.00;9.50;;;;;;;;5005080;28;9696;-81
2022/12/25 06:17:38;;;;;;;;;10.75;9.00;;;;;;;;5021750;28;9551;-81
2022/12/25 06:20:07;;;;;;;;;9.50;9.50;;;;;;;;5009300;28;9624;-81
2022/12/25 06:22:35;;;;;;;;;12.00;12.00;;;;;;;;5023117;28;10373;-81
2022/12/25 06:25:04;;;;;;;;;11.75;10.75;;;;;;;;5019970;28;9634;-81
2022/12/25 06:27:31;;;;;;;;;7.50;7.50;;;;;;;;5024871;28;9656;-81
2022/12/25 06:29:58;;;;;;;;;12.50;6.75;;;;;;;;5024378;28;9442;-81
2022/12/25 06:32:26;;;;;;;;;9.50;9.00;;;;;;;;5017538;28;9732;-81
2022/12/25 06:34:53;;;;;;;;;8.00;8.00;;;;;;;;5009171;28;9628;-81
2022/12/25 06:37:20;;;;;;;;;7.00;7.00;;;;;;;;5025388;28;9614;-81
2022/12/25 06:39:48;;;;;;;;;8.00;6.25;;;;;;;;5015073;28;9970;-81
2022/12/25 06:42:17;;;;;;;;;13.75;10.25;;;;;;;;5030242;28;10222;-81
2022/12/25 06:44:45;;;;;;;;;9.00;9.00;;;;;;;;5029274;28;9886;-81
2022/12/25 06:47:12;;;;;;;;;9.50;8.50;;;;;;;;5020153;28;9630;-81
2022/12/25 06:49:40;;;;;;;;;10.50;10.50;;;;;;;;5021450;28;9706;-81
2022/12/25 06:52:07;;;;;;;;;9.75;9.75;;;;;;;;5021886;28;9713;-81
2022/12/25 06:54:35;;;;;;;;;9.75;9.25;;;;;;;;5001547;28;9740;-81
2022/12/25 06:57:02;;;;;;;;;10.50;9.25;;;;;;;;5005172;28;10463;-81
2022/12/25 06:59:31;;;;;;;;;8.00;5.75;;;;;;;;5004095;28;9851;-81
2022/12/25 07:01:59;;;;;;;;;9.00;8.50;;;;;;;;5006454;28;9708;-82
2022/12/25 07:04:31;;;;;;;;;6.25;6.25;;;;;;;;5019269;28;9625;-82
2022/12/25 07:06:59;;;;;;;;;10.50;9.25;;;;;;;;5022516;28;9709;-82
2022/12/25 07:09:26;;;;;;;;;9.00;9.00;;;;;;;;5027517;28;9718;-82
2022/12/25 07:11:53;;;;;;;;;9.25;9.25;;;;;;;;4994924;28;9708;-79
2022/12/25 07:14:22;;;;;;;;;9.00;9.00;;;;;;;;5026871;28;9686;-80
2022/12/25 07:16:51;;;;;;;;;9.25;9.25;;;;;;;;5025336;28;10015;-79
2022/12/25 07:19:20;;;;;;;;;13.25;12.00;;;;;;;;5024195;28;9785;-82
2022/12/25 07:21:47;;;;;;;;;11.25;11.25;;;;;;;;5025064;28;9816;-85
2022/12/25 07:24:19;;;;;;;;;9.50;9.50;;;;;;;;5022580;28;9689;-82
2022/12/25 07:26:46;;;;;;;;;10.00;10.00;;;;;;;;5025684;28;9923;-82
2022/12/25 07:29:14;;;;;;;;;9.50;9.50;;;;;;;;5023112;28;9986;-83
2022/12/25 07:31:41;;;;;;;;;10.00;10.00;;;;;;;;5022081;28;9832;-81
2022/12/25 07:34:10;;;;;;;;;10.00;10.00;;;;;;;;5024981;28;10122;-82
2022/12/25 07:36:38;;;;;;;;;10.75;10.75;;;;;;;;5023955;28;9984;-82
2022/12/25 07:39:06;;;;;;;;;12.75;10.75;;;;;;;;5021055;28;9866;-80
2022/12/25 07:41:33;;;;;;;;;10.50;10.50;;;;;;;;5004787;28;10738;-78
2022/12/25 07:44:01;;;;;;;;;13.50;10.75;;;;;;;;5023938;28;10005;-77
2022/12/25 07:46:29;;;;;;;;;15.50;11.25;;;;;;;;5009405;28;10047;-79
2022/12/25 07:48:56;;;;;;;;;11.00;11.00;;;;;;;;4992620;28;9866;-78
2022/12/25 07:51:25;;;;;;;;;11.75;11.75;;;;;;;;5015477;28;9963;-79
2022/12/25 07:53:52;;;;;;;;;10.00;10.00;;;;;;;;5021664;28;9916;-78
2022/12/25 07:56:20;;;;;;;;;10.50;9.00;;;;;;;;5022114;28;10951;-76
2022/12/25 07:58:48;;;;;;;;;13.50;11.50;;;;;;;;5023691;28;10098;-79
2022/12/25 08:01:18;;;;;;;;;10.25;10.25;;;;;;;;5002177;28;9955;-83
2022/12/25 08:03:50;;;;;;;;;10.25;10.25;;;;;;;;5022521;28;9914;-80
2022/12/25 08:06:18;;;;;;;;;12.00;12.00;;;;;;;;5001606;28;10801;-76
2022/12/25 08:08:47;;;;;;;;;10.25;10.25;;;;;;;;5002467;28;10657;-78
2022/12/25 08:11:14;;;;;;;;;11.25;10.50;;;;;;;;5022296;28;9891;-78
2022/12/25 08:13:42;;;;;;;;;12.25;12.25;;;;;;;;5019244;28;9928;-79
2022/12/25 08:16:11;;;;;;;;;13.00;12.00;;;;;;;;5020021;28;9897;-75
2022/12/25 08:18:39;;;;;;;;;10.00;10.00;;;;;;;;5019111;28;10835;-77
2022/12/25 08:21:08;;;;;;;;;11.75;10.00;;;;;;;;5024092;28;9780;-77
2022/12/25 08:23:37;;;;;;;;;12.75;12.75;;;;;;;;5017233;28;9778;-76
2022/12/25 08:26:07;;;;;;;;;11.50;11.25;;;;;;;;5018281;28;9839;-75
2022/12/25 08:28:35;;;;;;;;;11.00;11.00;;;;;;;;5023928;28;9925;-75
2022/12/25 08:31:07;;;;;;;;;11.75;10.00;;;;;;;;5019433;28;10040;-75
2022/12/25 08:33:36;;;;;;;;;12.00;11.00;;;;;;;;5015355;28;9805;-76
2022/12/25 08:36:05;;;;;;;;;8.00;8.00;;;;;;;;5034072;28;9883;-75
2022/12/25 08:38:32;;;;;;;;;14.50;12.50;;;;;;;;5000483;28;9693;-76
2022/12/25 08:41:00;;;;;;;;;12.50;12.00;;;;;;;;5019703;28;9677;-77
2022/12/25 08:43:29;;;;;;;;;14.00;12.25;;;;;;;;5000615;28;9720;-78
2022/12/25 08:45:59;;;;;;;;;16.75;13.00;;;;;;;;5004057;28;9762;-77
2022/12/25 08:48:27;;;;;;;;;11.00;11.00;;;;;;;;5023245;28;9733;-77
2022/12/25 08:50:55;;;;;;;;;12.00;12.00;;;;;;;;5004765;28;9847;-77
2022/12/25 08:53:22;;;;;;;;;9.50;8.50;;;;;;;;5022190;28;9789;-75
2022/12/25 08:55:50;;;;;;;;;9.25;9.25;;;;;;;;5014690;28;10377;-75
2022/12/25 08:58:18;;;;;;;;;11.50;10.25;;;;;;;;5019374;28;9777;-78
2022/12/25 09:00:47;;;;;;;;;12.75;10.75;;;;;;;;4997019;28;9884;-79
2022/12/25 09:03:14;;;;;;;;;8.75;8.75;;;;;;;;5018224;28;9704;-77
2022/12/25 09:05:42;;;;;;;;;9.25;9.25;;;;;;;;5022385;28;9795;-78
2022/12/25 09:08:09;;;;;;;;;11.00;11.00;;;;;;;;4995996;28;9915;-78
2022/12/25 09:10:37;;;;;;;;;14.50;14.50;;;;;;;;5020383;28;9868;-79
2022/12/25 09:13:05;;;;;;;;;9.25;7.75;;;;;;;;5018453;28;9885;-78
2022/12/25 09:15:32;;;;;;;;;8.25;5.75;;;;;;;;5018784;28;9648;-77
2022/12/25 09:18:01;;;;;;;;;10.50;9.00;;;;;;;;5004157;28;9688;-77
2022/12/25 09:20:28;;;;;;;;;9.75;9.00;;;;;;;;5017304;28;9787;-76
2022/12/25 09:22:55;;;;;;;;;10.25;10.25;;;;;;;;4999738;28;9673;-78
2022/12/25 09:25:23;;;;;;;;;7.50;7.50;;;;;;;;5032261;28;9879;-78
2022/12/25 09:27:50;;;;;;;;;10.25;8.00;;;;;;;;5022818;28;9689;-78
2022/12/25 09:30:18;;;;;;;;;10.00;10.00;;;;;;;;5000488;28;9898;-78
2022/12/25 09:32:46;;;;;;;;;9.50;8.00;;;;;;;;5023519;28;10658;-79
2022/12/25 09:35:16;;;;;;;;;11.00;9.00;;;;;;;;5002048;28;10221;-78
2022/12/25 09:37:44;;;;;;;;;7.50;7.50;;;;;;;;5023392;28;9892;-79
2022/12/25 09:40:15;;;;;;;;;10.00;10.00;;;;;;;;5020495;28;9829;-79
2022/12/25 09:42:43;;;;;;;;;10.75;10.75;;;;;;;;5001852;28;9849;-79
2022/12/25 09:45:13;;;;;;;;;9.25;9.25;;;;;;;;5004417;28;9799;-79
2022/12/25 09:47:43;;;;;;;;;10.50;9.00;;;;;;;;4988437;28;10005;-79
2022/12/25 09:50:15;;;;;;;;;8.75;8.75;;;;;;;;5027005;28;9943;-81
2022/12/25 09:52:46;;;;;;;;;6.50;6.50;;;;;;;;5025302;28;10017;-80
2022/12/25 09:55:18;;;;;;;;;9.25;7.50;;;;;;;;5022904;28;9977;-80
2022/12/25 09:57:45;;;;;;;;;5.00;4.50;;;;;;;;5026168;28;10072;-80
2022/12/25 10:00:18;;;;;;;;;10.00;8.50;;;;;;;;5007938;28;9984;-78
2022/12/25 10:03:07;;;;;;;;;6.25;6.25;;;;;;;;5021891;28;9831;-78
2022/12/25 10:06:07;;;;;;;;;5.00;5.00;;;;;;;;5007899;28;9793;-79
2022/12/25 10:09:13;;;;;;;;;5.25;5.25;;;;;;;;5008568;28;9796;-79
2022/12/25 10:11:56;;;;;;;;;6.00;6.00;;;;;;;;5021834;28;9856;-80
2022/12/25 10:14:29;;;;;;;;;6.00;6.00;;;;;;;;5019531;28;10524;-79
2022/12/25 10:17:04;;;;;;;;;5.00;5.00;;;;;;;;5024621;28;9885;-79
2022/12/25 10:19:41;;;;;;;;;7.00;5.00;;;;;;;;5004412;28;9802;-81
2022/12/25 10:22:12;;;;;;;;;8.75;6.75;;;;;;;;5037654;28;9792;-80
2022/12/25 10:24:44;;;;;;;;;3.25;2.75;;;;;;;;5020300;28;9774;-81
2022/12/25 10:27:17;;;;;;;;;10.25;7.50;;;;;;;;5000731;28;9960;-80
2022/12/25 10:29:45;;;;;;;;;8.50;7.00;;;;;;;;5019818;28;10539;-78
2022/12/25 10:32:12;;;;;;;;;8.50;7.00;;;;;;;;5023177;28;9673;-79
2022/12/25 10:34:42;;;;;;;;;10.00;10.00;;;;;;;;5020584;28;9722;-78
2022/12/25 10:37:11;;;;;;;;;9.00;6.25;;;;;;;;4997741;28;9869;-79
2022/12/25 10:39:40;;;;;;;;;9.00;9.00;;;;;;;;5016017;28;9612;-79
2022/12/25 10:42:21;;;;;;;;;7.50;7.50;;;;;;;;5016539;28;9763;-78
2022/12/25 10:44:56;;;;;;;;;7.00;7.00;;;;;;;;5022314;28;9874;-81
2022/12/25 10:47:26;;;;;;;;;8.75;8.50;;;;;;;;5019261;28;9992;-82
2022/12/25 10:49:53;;;;;;;;;8.00;8.00;;;;;;;;5022605;28;9813;-81
2022/12/25 10:52:23;;;;;;;;;6.00;6.00;;;;;;;;5022057;28;9775;-79
2022/12/25 10:54:53;;;;;;;;;6.75;6.75;;;;;;;;5015554;28;9839;-79
2022/12/25 10:57:22;;;;;;;;;6.00;6.00;;;;;;;;5017052;28;10014;-79
2022/12/25 10:59:54;;;;;;;;;4.00;4.00;;;;;;;;5016902;28;9850;-81
2022/12/25 11:02:25;;;;;;;;;9.25;9.25;;;;;;;;5011199;28;9773;-79
2022/12/25 11:05:00;;;;;;;;;9.50;9.50;;;;;;;;5014915;28;10641;-80
2022/12/25 11:07:27;;;;;;;;;7.25;5.00;;;;;;;;5017695;28;10296;-81
2022/12/25 11:09:59;;;;;;;;;6.25;6.25;;;;;;;;5021885;28;9776;-78
2022/12/25 11:12:31;;;;;;;;;6.25;4.00;;;;;;;;5012910;28;9714;-80
2022/12/25 11:15:01;;;;;;;;;6.75;6.75;;;;;;;;5001295;28;9893;-79
2022/12/25 11:17:28;;;;;;;;;7.00;7.00;;;;;;;;5019947;28;10501;-83
2022/12/25 11:19:58;;;;;;;;;7.75;7.75;;;;;;;;5002998;28;9900;-80
2022/12/25 11:22:25;;;;;;;;;8.00;8.00;;;;;;;;5014076;28;9729;-79
2022/12/25 11:24:57;;;;;;;;;9.00;9.00;;;;;;;;5013015;28;9779;-77
2022/12/25 11:27:27;;;;;;;;;7.75;7.75;;;;;;;;5015613;28;9602;-81
2022/12/25 11:29:57;;;;;;;;;6.00;4.25;;;;;;;;4999824;28;9774;-83
2022/12/25 11:32:30;;;;;;;;;8.00;8.00;;;;;;;;5015906;28;9766;-79
2022/12/25 11:34:58;;;;;;;;;10.25;7.00;;;;;;;;5021634;28;9698;-78
2022/12/25 11:37:31;;;;;;;;;7.00;7.00;;;;;;;;5000163;28;9835;-83
2022/12/25 11:40:00;;;;;;;;;12.75;11.25;;;;;;;;5019848;28;10548;-77
2022/12/25 11:42:31;;;;;;;;;11.00;11.00;;;;;;;;5017369;28;9919;-79
2022/12/25 11:45:03;;;;;;;;;14.75;10.00;;;;;;;;5020632;28;9606;-77
2022/12/25 11:47:35;;;;;;;;;13.25;12.00;;;;;;;;5021337;28;10490;-79
2022/12/25 11:50:05;;;;;;;;;9.75;8.00;;;;;;;;5020224;28;9799;-81
2022/12/25 11:52:35;;;;;;;;;9.50;5.25;;;;;;;;5018443;28;9786;-81
2022/12/25 11:55:08;;;;;;;;;9.00;9.00;;;;;;;;5022474;28;9609;-84
2022/12/25 11:57:36;;;;;;;;;12.00;9.00;;;;;;;;5035023;28;9695;-78
2022/12/25 12:00:08;;;;;;;;;12.00;11.25;;;;;;;;5018983;28;9650;-79
2022/12/25 12:02:42;;;;;;;;;10.50;9.75;;;;;;;;5013204;28;9660;-79
2022/12/25 12:05:16;;;;;;;;;10.00;10.00;;;;;;;;5023012;28;9820;-77
2022/12/25 12:07:52;;;;;;;;;11.00;10.75;;;;;;;;5007218;28;9552;-76
2022/12/25 12:10:28;;;;;;;;;13.50;8.50;;;;;;;;5028624;28;9628;-78
2022/12/25 12:13:19;;;;;;;;;9.75;9.75;;;;;;;;5000186;28;9658;-79
2022/12/25 12:15:47;;;;;;;;;6.00;6.00;;;;;;;;5026982;28;9457;-77
2022/12/25 12:18:21;;;;;;;;;5.50;5.50;;;;;;;;5021128;28;9600;-83
2022/12/25 12:20:59;;;;;;;;;8.75;8.00;;;;;;;;5005766;28;10311;-79
2022/12/25 12:23:29;;;;;;;;;11.00;9.00;;;;;;;;5010586;28;9564;-79
2022/12/25 12:25:58;;;;;;;;;6.00;6.00;;;;;;;;5020139;28;10501;-79
2022/12/25 12:28:28;;;;;;;;;9.25;6.75;;;;;;;;5004751;28;9571;-82
2022/12/25 12:31:11;;;;;;;;;9.00;9.00;;;;;;;;5096579;27;9375;-80
2022/12/25 12:33:40;;;;;;;;;5.50;5.50;;;;;;;;5074316;28;9443;-78
2022/12/25 12:36:12;;;;;;;;;7.50;7.50;;;;;;;;5060416;28;9554;-77
2022/12/25 12:38:42;;;;;;;;;7.50;7.00;;;;;;;;5073037;28;9677;-77
2022/12/25 12:41:12;;;;;;;;;8.00;8.00;;;;;;;;5073427;28;9514;-77
2022/12/25 12:43:42;;;;;;;;;5.00;5.00;;;;;;;;5077209;28;9644;-78
2022/12/25 12:46:18;;;;;;;;;11.00;8.50;;;;;;;;5075891;28;9435;-83
2022/12/25 12:48:48;;;;;;;;;7.25;6.25;;;;;;;;5077556;28;9483;-81
2022/12/25 12:51:29;;;;;;;;;11.00;7.25;;;;;;;;5076617;28;9464;-85
2022/12/25 12:54:19;;;;;;;;;6.00;6.00;;;;;;;;5075789;28;9622;-77
2022/12/25 12:56:56;;;;;;;;;4.00;4.00;;;;;;;;5077109;28;9550;-80
2022/12/25 12:59:24;;;;;;;;;7.00;7.00;;;;;;;;5072373;28;9388;-79
2022/12/25 13:02:01;;;;;;;;;5.00;5.00;;;;;;;;5064461;28;10327;-81
2022/12/25 13:04:44;;;;;;;;;9.00;6.75;;;;;;;;5073467;28;9572;-78
2022/12/25 13:07:19;;;;;;;;;6.00;6.00;;;;;;;;5091555;28;9428;-78
2022/12/25 13:10:01;;;;;;;;;5.75;5.75;;;;;;;;5075492;28;9616;-78
2022/12/25 13:12:29;;;;;;;;;6.75;6.50;;;;;;;;5070181;28;9473;-76
2022/12/25 13:14:57;;;;;;;;;6.50;6.50;;;;;;;;5075498;28;9466;-75
2022/12/25 13:17:27;;;;;;;;;9.00;5.75;;;;;;;;5075152;28;9550;-77
2022/12/25 13:19:56;;;;;;;;;6.00;6.00;;;;;;;;5077230;28;10184;-78
2022/12/25 13:22:25;;;;;;;;;5.00;5.00;;;;;;;;5068515;28;9414;-75
2022/12/25 13:24:57;;;;;;;;;11.67;9.00;;;;;;;;5076312;28;9317;-80
2022/12/25 13:27:26;;;;;;;;;3.00;3.00;;;;;;;;5074808;28;10223;-80
2022/12/25 13:29:53;;;;;;;;;5.00;5.00;;;;;;;;5069775;28;9317;-79
2022/12/25 13:32:23;;;;;;;;;5.00;5.00;;;;;;;;5066687;28;9428;-79
2022/12/25 13:34:53;;;;;;;;;4.67;4.67;;;;;;;;5075416;28;9239;-77
2022/12/25 13:37:23;;;;;;;;;5.00;5.00;;;;;;;;5077789;28;9247;-78
2022/12/25 13:39:52;;;;;;;;;6.00;6.00;;;;;;;;5071757;28;9228;-82
2022/12/25 13:42:20;;;;;;;;;9.00;6.67;;;;;;;;5059544;28;9310;-75
2022/12/25 13:44:49;;;;;;;;;8.33;6.00;;;;;;;;5058330;28;10233;-78
2022/12/25 13:47:26;;;;;;;;;5.33;4.67;;;;;;;;5060006;28;9323;-77
2022/12/25 13:49:57;;;;;;;;;11.33;7.67;;;;;;;;5069448;28;9181;-78
2022/12/25 13:52:28;;;;;;;;;7.67;5.67;;;;;;;;5082229;28;9436;-78
2022/12/25 13:54:58;;;;;;;;;5.33;5.33;;;;;;;;5069172;28;9294;-78
2022/12/25 13:57:29;;;;;;;;;6.00;6.00;;;;;;;;5067048;28;9360;-76
2022/12/25 13:59:57;;;;;;;;;4.33;4.33;;;;;;;;5063870;28;9320;-80
2022/12/25 14:02:29;;;;;;;;;4.67;4.00;;;;;;;;5060179;28;9176;-78
2022/12/25 14:04:58;;;;;;;;;4.00;4.00;;;;;;;;5050946;28;9173;-78
2022/12/25 14:07:27;;;;;;;;;7.00;7.00;;;;;;;;5058851;28;9332;-78
2022/12/25 14:10:00;;;;;;;;;5.33;5.33;;;;;;;;5062560;28;9353;-81
2022/12/25 14:12:29;;;;;;;;;4.67;4.00;;;;;;;;5060312;28;9190;-78
2022/12/25 14:14:57;;;;;;;;;5.67;5.67;;;;;;;;5067575;28;9241;-79
2022/12/25 14:17:25;;;;;;;;;8.67;8.67;;;;;;;;5062830;28;9200;-78
2022/12/25 14:20:01;;;;;;;;;9.00;6.00;;;;;;;;5065976;28;9297;-78
2022/12/25 14:22:31;;;;;;;;;7.33;7.33;;;;;;;;5061986;28;9219;-77
2022/12/25 14:24:58;;;;;;;;;10.00;10.00;;;;;;;;5059378;28;9391;-78
2022/12/25 14:27:29;;;;;;;;;7.33;6.00;;;;;;;;5059905;28;9196;-78
2022/12/25 14:29:58;;;;;;;;;7.00;7.00;;;;;;;;5055005;28;9252;-75
2022/12/25 14:32:28;;;;;;;;;7.33;7.33;;;;;;;;5056410;28;9352;-76
2022/12/25 14:35:05;;;;;;;;;7.67;6.33;;;;;;;;5061648;28;9288;-76
2022/12/25 14:37:33;;;;;;;;;7.00;7.00;;;;;;;;5058419;28;9344;-76
2022/12/25 14:40:03;;;;;;;;;9.33;6.67;;;;;;;;5053558;28;8990;-77
2022/12/25 14:42:32;;;;;;;;;10.00;7.00;;;;;;;;5058909;28;9171;-75
2022/12/25 14:45:03;;;;;;;;;9.00;9.00;;;;;;;;5060860;28;9191;-75
2022/12/25 14:47:32;;;;;;;;;7.00;6.33;;;;;;;;5057816;28;9391;-74
2022/12/25 14:50:01;;;;;;;;;7.00;7.00;;;;;;;;5057233;28;9186;-77
2022/12/25 14:52:39;;;;;;;;;11.00;9.00;;;;;;;;5055574;28;9596;-76
2022/12/25 14:55:16;;;;;;;;;8.67;5.67;;;;;;;;5056439;28;9202;-75
2022/12/25 14:57:48;;;;;;;;;4.00;4.00;;;;;;;;5058611;28;9099;-75
2022/12/25 15:00:23;;;;;;;;;9.00;9.00;;;;;;;;5053995;28;9313;-76
2022/12/25 15:02:52;;;;;;;;;7.67;7.67;;;;;;;;5063685;28;9944;-78
2022/12/25 15:05:33;;;;;;;;;13.33;8.33;;;;;;;;5058837;28;9262;-78
2022/12/25 15:08:20;;;;;;;;;4.00;4.00;;;;;;;;5054303;28;9254;-74
2022/12/25 15:10:48;;;;;;;;;9.33;9.33;;;;;;;;5057330;28;9161;-75
2022/12/25 15:13:18;;;;;;;;;6.33;5.00;;;;;;;;5051987;28;10046;-75
2022/12/25 15:15:51;;;;;;;;;6.67;6.67;;;;;;;;5054405;28;9183;-73
2022/12/25 15:18:19;;;;;;;;;7.33;7.33;;;;;;;;5057469;28;9186;-74
2022/12/25 15:20:51;;;;;;;;;6.00;6.00;;;;;;;;5047529;28;9093;-75
2022/12/25 15:23:19;;;;;;;;;11.00;7.33;;;;;;;;5050660;28;9207;-76
2022/12/25 15:25:47;;;;;;;;;7.67;6.00;;;;;;;;5038894;28;9201;-75
2022/12/25 15:28:15;;;;;;;;;6.00;6.00;;;;;;;;5054917;28;9244;-75
2022/12/25 15:30:42;;;;;;;;;6.00;4.67;;;;;;;;5053680;28;9072;-75
2022/12/25 15:33:14;;;;;;;;;9.00;6.00;;;;;;;;5050921;28;9186;-76
2022/12/25 15:35:43;;;;;;;;;9.33;5.00;;;;;;;;5054985;28;9928;-82
2022/12/25 15:38:13;;;;;;;;;10.33;9.67;;;;;;;;5060474;28;9018;-73
2022/12/25 15:40:41;;;;;;;;;6.00;6.00;;;;;;;;5054320;28;9165;-75
2022/12/25 15:43:11;;;;;;;;;10.67;8.67;;;;;;;;5036663;28;9182;-75
2022/12/25 15:45:38;;;;;;;;;9.00;8.00;;;;;;;;5052204;28;9223;-75
2022/12/25 15:48:06;;;;;;;;;6.00;6.00;;;;;;;;5053367;28;9182;-75
2022/12/25 15:50:35;;;;;;;;;8.33;6.00;;;;;;;;5053587;28;9283;-76
2022/12/25 15:53:03;;;;;;;;;6.33;6.33;;;;;;;;5055759;28;9014;-74
2022/12/25 15:55:32;;;;;;;;;6.00;4.00;;;;;;;;5052061;28;9107;-75
2022/12/25 15:58:00;;;;;;;;;4.00;4.00;;;;;;;;5056130;28;8961;-78
2022/12/25 16:00:30;;;;;;;;;6.00;6.00;;;;;;;;5064752;28;8879;-85
2022/12/25 16:02:57;;;;;;;;;7.33;7.00;;;;;;;;5067906;28;9268;-80
2022/12/25 16:05:25;;;;;;;;;6.33;6.33;;;;;;;;5060885;28;9025;-79
2022/12/25 16:07:53;;;;;;;;;8.00;6.33;;;;;;;;5073524;28;9275;-77
2022/12/25 16:10:21;;;;;;;;;10.33;8.33;;;;;;;;5058491;28;9114;-80
2022/12/25 16:12:50;;;;;;;;;10.00;9.33;;;;;;;;5053718;28;9254;-76
2022/12/25 16:15:17;;;;;;;;;6.00;6.00;;;;;;;;5055634;28;9232;-77
2022/12/25 16:17:47;;;;;;;;;9.00;6.00;;;;;;;;5066018;28;9059;-83
2022/12/25 16:20:14;;;;;;;;;7.00;6.33;;;;;;;;5059744;28;9025;-81
2022/12/25 16:22:41;;;;;;;;;9.00;9.00;;;;;;;;5057647;28;9021;-89
2022/12/25 16:25:15;;;;;;;;;7.00;6.00;;;;;;;;5052354;28;9198;-81
2022/12/25 16:27:43;;;;;;;;;4.67;4.67;;;;;;;;5050613;28;9107;-81
2022/12/25 16:30:15;;;;;;;;;6.33;5.33;;;;;;;;5050734;28;9350;-80
2022/12/25 16:32:44;;;;;;;;;7.00;6.00;;;;;;;;5055908;28;9114;-82
2022/12/25 16:35:12;;;;;;;;;8.67;6.00;;;;;;;;5053328;28;9076;-80
2022/12/25 16:37:40;;;;;;;;;5.00;5.00;;;;;;;;5055382;28;9106;-80
2022/12/25 16:40:09;;;;;;;;;8.67;6.00;;;;;;;;5053385;28;9298;-83
2022/12/25 16:42:37;;;;;;;;;7.00;7.00;;;;;;;;5051621;28;9053;-86
2022/12/25 16:45:06;;;;;;;;;8.33;8.33;;;;;;;;5052733;28;9248;-82
2022/12/25 16:47:35;;;;;;;;;9.00;9.00;;;;;;;;5082190;28;9297;-80